sensor_id;sensor_type;location;lat;lon;timestamp;temperature;humidity
48744;DHT22;34538;48.836;9.174;2023-06-04T00:02:00;14.40;99.70
48744;DHT22;34538;48.836;9.174;2023-06-04T00:04:26;14.30;99.90
48744;DHT22;34538;48.836;9.174;2023-06-04T00:06:55;14.30;99.90
48744;DHT22;34538;48.836;9.174;2023-06-04T00:09:22;14.30;99.90
48744;DHT22;34538;48.836;9.174;2023-06-04T00:11:49;14.20;99.90
48744;DHT22;34538;48.836;9.174;2023-06-04T00:14:16;14.10;99.90
48744;DHT22;34538;48.836;9.174;2023-06-04T00:16:43;14.10;99.90
48744;DHT22;34538;48.836;9.174;2023-06-04T00:19:10;14.00;99.90
48744;DHT22;34538;48.836;9.174;2023-06-04T00:21:37;14.00;99.90
48744;DHT22;34538;48.836;9.174;2023-06-04T00:24:05;14.00;99.90
48744;DHT22;34538;48.836;9.174;2023-06-04T00:26:33;14.00;99.90
48744;DHT22;34538;48.836;9.174;2023-06-04T00:29:00;13.90;99.90
48744;DHT22;34538;48.836;9.174;2023-06-04T00:31:27;13.90;99.90
48744;DHT22;34538;48.836;9.174;2023-06-04T00:33:54;13.90;99.90
48744;DHT22;34538;48.836;9.174;2023-06-04T00:36:21;13.80;99.90
48744;DHT22;34538;48.836;9.174;2023-06-04T00:38:48;13.80;99.90
48744;DHT22;34538;48.836;9.174;2023-06-04T00:41:16;13.70;99.90
48744;DHT22;34538;48.836;9.174;2023-06-04T00:43:43;13.70;99.90
48744;DHT22;34538;48.836;9.174;2023-06-04T00:46:11;13.70;99.90
48744;DHT22;34538;48.836;9.174;2023-06-04T00:48:43;13.60;99.90
48744;DHT22;34538;48.836;9.174;2023-06-04T00:51:11;13.60;99.90
48744;DHT22;34538;48.836;9.174;2023-06-04T00:53:38;13.60;99.90
48744;DHT22;34538;48.836;9.174;2023-06-04T00:56:05;13.60;99.90
48744;DHT22;34538;48.836;9.174;2023-06-04T00:58:37;13.60;99.90
48744;DHT22;34538;48.836;9.174;2023-06-04T01:01:15;13.50;99.90
48744;DHT22;34538;48.836;9.174;2023-06-04T01:03:49;13.40;99.90
48744;DHT22;34538;48.836;9.174;2023-06-04T01:06:22;13.40;99.90
48744;DHT22;34538;48.836;9.174;2023-06-04T01:08:52;13.40;99.90
48744;DHT22;34538;48.836;9.174;2023-06-04T01:11:31;13.30;99.90
48744;DHT22;34538;48.836;9.174;2023-06-04T01:13:59;13.30;99.90
48744;DHT22;34538;48.836;9.174;2023-06-04T01:16:27;13.20;99.90
48744;DHT22;34538;48.836;9.174;2023-06-04T01:18:57;13.20;99.90
48744;DHT22;34538;48.836;9.174;2023-06-04T01:21:26;13.20;99.90
48744;DHT22;34538;48.836;9.174;2023-06-04T01:23:57;13.10;99.90
48744;DHT22;34538;48.836;9.174;2023-06-04T01:26:27;13.10;99.90
48744;DHT22;34538;48.836;9.174;2023-06-04T01:28:56;13.10;99.90
48744;DHT22;34538;48.836;9.174;2023-06-04T01:31:25;13.10;99.90
48744;DHT22;34538;48.836;9.174;2023-06-04T01:33:53;13.00;99.90
48744;DHT22;34538;48.836;9.174;2023-06-04T01:36:21;13.00;99.90
48744;DHT22;34538;48.836;9.174;2023-06-04T01:38:48;13.00;99.90
48744;DHT22;34538;48.836;9.174;2023-06-04T01:41:16;12.90;99.90
48744;DHT22;34538;48.836;9.174;2023-06-04T01:43:43;12.80;99.90
48744;DHT22;34538;48.836;9.174;2023-06-04T01:46:10;12.80;99.90
48744;DHT22;34538;48.836;9.174;2023-06-04T01:48:38;12.80;99.90
48744;DHT22;34538;48.836;9.174;2023-06-04T01:51:06;12.70;99.90
48744;DHT22;34538;48.836;9.174;2023-06-04T01:53:33;12.70;99.90
48744;DHT22;34538;48.836;9.174;2023-06-04T01:56:00;12.70;99.90
48744;DHT22;34538;48.836;9.174;2023-06-04T01:58:28;12.70;99.90
48744;DHT22;34538;48.836;9.174;2023-06-04T02:00:55;12.60;99.90
48744;DHT22;34538;48.836;9.174;2023-06-04T02:03:25;12.50;99.90
48744;DHT22;34538;48.836;9.174;2023-06-04T02:05:54;12.50;99.90
48744;DHT22;34538;48.836;9.174;2023-06-04T02:08:21;12.50;99.90
48744;DHT22;34538;48.836;9.174;2023-06-04T02:10:51;12.50;99.90
48744;DHT22;34538;48.836;9.174;2023-06-04T02:13:18;12.40;99.90
48744;DHT22;34538;48.836;9.174;2023-06-04T02:15:45;12.40;99.90
48744;DHT22;34538;48.836;9.174;2023-06-04T02:18:13;12.30;99.90
48744;DHT22;34538;48.836;9.174;2023-06-04T02:20:42;12.30;99.90
48744;DHT22;34538;48.836;9.174;2023-06-04T02:23:11;12.20;99.90
48744;DHT22;34538;48.836;9.174;2023-06-04T02:25:38;12.20;99.90
48744;DHT22;34538;48.836;9.174;2023-06-04T02:28:06;12.20;99.90
48744;DHT22;34538;48.836;9.174;2023-06-04T02:30:35;12.10;99.90
48744;DHT22;34538;48.836;9.174;2023-06-04T02:33:02;12.10;99.90
48744;DHT22;34538;48.836;9.174;2023-06-04T02:35:30;12.10;99.90
48744;DHT22;34538;48.836;9.174;2023-06-04T02:37:57;12.00;99.90
48744;DHT22;34538;48.836;9.174;2023-06-04T02:40:27;12.00;99.90
48744;DHT22;34538;48.836;9.174;2023-06-04T02:42:55;11.90;99.90
48744;DHT22;34538;48.836;9.174;2023-06-04T02:45:22;11.90;99.90
48744;DHT22;34538;48.836;9.174;2023-06-04T02:47:49;11.90;99.90
48744;DHT22;34538;48.836;9.174;2023-06-04T02:50:16;11.90;99.90
48744;DHT22;34538;48.836;9.174;2023-06-04T02:52:44;11.80;99.90
48744;DHT22;34538;48.836;9.174;2023-06-04T02:55:11;11.80;99.90
48744;DHT22;34538;48.836;9.174;2023-06-04T02:57:41;11.80;99.90
48744;DHT22;34538;48.836;9.174;2023-06-04T03:00:09;11.80;99.90
48744;DHT22;34538;48.836;9.174;2023-06-04T03:02:39;11.70;99.90
48744;DHT22;34538;48.836;9.174;2023-06-04T03:05:09;11.70;99.90
48744;DHT22;34538;48.836;9.174;2023-06-04T03:07:36;11.70;99.90
48744;DHT22;34538;48.836;9.174;2023-06-04T03:10:03;11.60;99.90
48744;DHT22;34538;48.836;9.174;2023-06-04T03:12:31;11.60;99.90
48744;DHT22;34538;48.836;9.174;2023-06-04T03:14:59;11.60;99.90
48744;DHT22;34538;48.836;9.174;2023-06-04T03:17:26;11.60;99.90
48744;DHT22;34538;48.836;9.174;2023-06-04T03:19:53;11.60;99.90
48744;DHT22;34538;48.836;9.174;2023-06-04T03:22:21;11.60;99.90
48744;DHT22;34538;48.836;9.174;2023-06-04T03:24:48;11.60;99.90
48744;DHT22;34538;48.836;9.174;2023-06-04T03:27:15;11.60;99.90
48744;DHT22;34538;48.836;9.174;2023-06-04T03:29:42;11.60;99.90
48744;DHT22;34538;48.836;9.174;2023-06-04T03:32:12;11.60;99.90
48744;DHT22;34538;48.836;9.174;2023-06-04T03:34:39;11.60;99.90
48744;DHT22;34538;48.836;9.174;2023-06-04T03:37:06;11.60;99.90
48744;DHT22;34538;48.836;9.174;2023-06-04T03:39:33;11.60;99.90
48744;DHT22;34538;48.836;9.174;2023-06-04T03:42:04;11.60;99.90
48744;DHT22;34538;48.836;9.174;2023-06-04T03:44:32;11.60;99.90
48744;DHT22;34538;48.836;9.174;2023-06-04T03:46:59;11.60;99.90
48744;DHT22;34538;48.836;9.174;2023-06-04T03:49:28;11.60;99.90
48744;DHT22;34538;48.836;9.174;2023-06-04T03:51:55;11.70;99.90
48744;DHT22;34538;48.836;9.174;2023-06-04T03:54:23;11.70;99.90
48744;DHT22;34538;48.836;9.174;2023-06-04T03:56:50;11.60;99.90
48744;DHT22;34538;48.836;9.174;2023-06-04T03:59:17;11.70;99.90
48744;DHT22;34538;48.836;9.174;2023-06-04T04:01:45;11.70;99.90
48744;DHT22;34538;48.836;9.174;2023-06-04T04:04:12;11.70;99.90
48744;DHT22;34538;48.836;9.174;2023-06-04T04:06:40;11.70;99.90
48744;DHT22;34538;48.836;9.174;2023-06-04T04:09:07;11.80;99.90
48744;DHT22;34538;48.836;9.174;2023-06-04T04:11:36;11.80;99.90
48744;DHT22;34538;48.836;9.174;2023-06-04T04:14:04;11.80;99.90
48744;DHT22;34538;48.836;9.174;2023-06-04T04:16:32;11.90;99.90
48744;DHT22;34538;48.836;9.174;2023-06-04T04:18:59;12.00;99.90
48744;DHT22;34538;48.836;9.174;2023-06-04T04:21:26;12.00;99.90
48744;DHT22;34538;48.836;9.174;2023-06-04T04:23:54;12.10;99.90
48744;DHT22;34538;48.836;9.174;2023-06-04T04:26:22;12.20;99.90
48744;DHT22;34538;48.836;9.174;2023-06-04T04:28:54;12.20;99.90
48744;DHT22;34538;48.836;9.174;2023-06-04T04:31:24;12.30;99.90
48744;DHT22;34538;48.836;9.174;2023-06-04T04:33:51;12.40;99.90
48744;DHT22;34538;48.836;9.174;2023-06-04T04:36:18;12.50;99.90
48744;DHT22;34538;48.836;9.174;2023-06-04T04:38:47;12.50;99.90
48744;DHT22;34538;48.836;9.174;2023-06-04T04:41:23;12.60;99.90
48744;DHT22;34538;48.836;9.174;2023-06-04T04:43:53;12.70;99.90
48744;DHT22;34538;48.836;9.174;2023-06-04T04:46:25;12.90;99.90
48744;DHT22;34538;48.836;9.174;2023-06-04T04:48:52;13.00;99.90
48744;DHT22;34538;48.836;9.174;2023-06-04T04:51:19;13.20;99.90
48744;DHT22;34538;48.836;9.174;2023-06-04T04:53:46;13.40;99.90
48744;DHT22;34538;48.836;9.174;2023-06-04T04:56:13;13.60;99.90
48744;DHT22;34538;48.836;9.174;2023-06-04T04:58:45;13.80;99.90
48744;DHT22;34538;48.836;9.174;2023-06-04T05:01:12;14.00;99.90
48744;DHT22;34538;48.836;9.174;2023-06-04T05:03:40;14.30;99.50
48744;DHT22;34538;48.836;9.174;2023-06-04T05:06:10;14.60;99.20
48744;DHT22;34538;48.836;9.174;2023-06-04T05:08:37;14.80;98.30
48744;DHT22;34538;48.836;9.174;2023-06-04T05:11:04;15.00;96.50
48744;DHT22;34538;48.836;9.174;2023-06-04T05:13:32;15.10;96.60
48744;DHT22;34538;48.836;9.174;2023-06-04T05:16:04;15.30;96.80
48744;DHT22;34538;48.836;9.174;2023-06-04T05:18:33;15.40;95.60
48744;DHT22;34538;48.836;9.174;2023-06-04T05:21:02;15.60;95.20
48744;DHT22;34538;48.836;9.174;2023-06-04T05:23:31;15.80;95.40
48744;DHT22;34538;48.836;9.174;2023-06-04T05:26:01;15.90;94.90
48744;DHT22;34538;48.836;9.174;2023-06-04T05:28:28;16.10;93.90
48744;DHT22;34538;48.836;9.174;2023-06-04T05:30:55;16.20;93.90
48744;DHT22;34538;48.836;9.174;2023-06-04T05:33:30;16.20;93.20
48744;DHT22;34538;48.836;9.174;2023-06-04T05:36:01;16.40;93.10
48744;DHT22;34538;48.836;9.174;2023-06-04T05:38:33;16.50;92.90
48744;DHT22;34538;48.836;9.174;2023-06-04T05:41:04;16.50;92.30
48744;DHT22;34538;48.836;9.174;2023-06-04T05:43:34;16.60;92.20
48744;DHT22;34538;48.836;9.174;2023-06-04T05:46:01;16.70;92.30
48744;DHT22;34538;48.836;9.174;2023-06-04T05:48:30;16.90;92.70
48744;DHT22;34538;48.836;9.174;2023-06-04T05:50:56;17.00;92.40
48744;DHT22;34538;48.836;9.174;2023-06-04T05:53:24;17.30;92.50
48744;DHT22;34538;48.836;9.174;2023-06-04T05:55:51;17.40;91.70
48744;DHT22;34538;48.836;9.174;2023-06-04T05:58:18;17.50;90.90
48744;DHT22;34538;48.836;9.174;2023-06-04T06:00:45;17.50;91.20
48744;DHT22;34538;48.836;9.174;2023-06-04T06:03:14;17.50;90.90
48744;DHT22;34538;48.836;9.174;2023-06-04T06:05:46;17.50;90.40
48744;DHT22;34538;48.836;9.174;2023-06-04T06:08:14;17.40;90.80
48744;DHT22;34538;48.836;9.174;2023-06-04T06:10:41;17.30;91.20
48744;DHT22;34538;48.836;9.174;2023-06-04T06:13:08;17.30;91.30
48744;DHT22;34538;48.836;9.174;2023-06-04T06:15:35;17.40;91.00
48744;DHT22;34538;48.836;9.174;2023-06-04T06:18:02;17.30;90.80
48744;DHT22;34538;48.836;9.174;2023-06-04T06:20:29;17.40;90.50
48744;DHT22;34538;48.836;9.174;2023-06-04T06:23:05;17.40;90.30
48744;DHT22;34538;48.836;9.174;2023-06-04T06:25:33;17.50;90.90
48744;DHT22;34538;48.836;9.174;2023-06-04T06:28:08;17.60;90.40
48744;DHT22;34538;48.836;9.174;2023-06-04T06:30:36;17.80;89.50
48744;DHT22;34538;48.836;9.174;2023-06-04T06:33:03;18.00;89.20
48744;DHT22;34538;48.836;9.174;2023-06-04T06:35:30;18.30;89.60
48744;DHT22;34538;48.836;9.174;2023-06-04T06:37:57;18.40;88.90
48744;DHT22;34538;48.836;9.174;2023-06-04T06:40:25;18.50;88.50
48744;DHT22;34538;48.836;9.174;2023-06-04T06:42:52;18.60;88.80
48744;DHT22;34538;48.836;9.174;2023-06-04T06:45:19;18.60;88.90
48744;DHT22;34538;48.836;9.174;2023-06-04T06:47:46;18.50;87.30
48744;DHT22;34538;48.836;9.174;2023-06-04T06:50:13;18.40;86.70
48744;DHT22;34538;48.836;9.174;2023-06-04T06:52:40;18.40;90.10
48744;DHT22;34538;48.836;9.174;2023-06-04T06:55:07;18.30;89.10
48744;DHT22;34538;48.836;9.174;2023-06-04T06:57:35;18.20;88.70
48744;DHT22;34538;48.836;9.174;2023-06-04T07:00:02;18.20;89.00
48744;DHT22;34538;48.836;9.174;2023-06-04T07:02:31;18.30;87.90
48744;DHT22;34538;48.836;9.174;2023-06-04T07:04:58;18.20;88.90
48744;DHT22;34538;48.836;9.174;2023-06-04T07:07:24;18.40;89.70
48744;DHT22;34538;48.836;9.174;2023-06-04T07:09:52;18.40;89.40
48744;DHT22;34538;48.836;9.174;2023-06-04T07:12:19;18.40;89.80
48744;DHT22;34538;48.836;9.174;2023-06-04T07:14:47;18.50;89.80
48744;DHT22;34538;48.836;9.174;2023-06-04T07:17:14;18.60;88.70
48744;DHT22;34538;48.836;9.174;2023-06-04T07:19:40;18.50;89.60
48744;DHT22;34538;48.836;9.174;2023-06-04T07:22:07;18.50;90.20
48744;DHT22;34538;48.836;9.174;2023-06-04T07:24:34;18.50;90.10
48744;DHT22;34538;48.836;9.174;2023-06-04T07:27:01;18.60;90.20
48744;DHT22;34538;48.836;9.174;2023-06-04T07:29:28;18.70;90.20
48744;DHT22;34538;48.836;9.174;2023-06-04T07:31:56;18.80;89.70
48744;DHT22;34538;48.836;9.174;2023-06-04T07:34:22;19.00;90.40
48744;DHT22;34538;48.836;9.174;2023-06-04T07:36:49;19.10;88.90
48744;DHT22;34538;48.836;9.174;2023-06-04T07:39:16;19.10;87.40
48744;DHT22;34538;48.836;9.174;2023-06-04T07:41:43;19.10;88.30
48744;DHT22;34538;48.836;9.174;2023-06-04T07:44:10;19.10;88.10
48744;DHT22;34538;48.836;9.174;2023-06-04T07:46:36;19.00;89.20
48744;DHT22;34538;48.836;9.174;2023-06-04T07:49:05;19.00;89.40
48744;DHT22;34538;48.836;9.174;2023-06-04T07:51:31;19.00;90.10
48744;DHT22;34538;48.836;9.174;2023-06-04T07:53:58;19.10;89.30
48744;DHT22;34538;48.836;9.174;2023-06-04T07:56:25;19.30;89.70
48744;DHT22;34538;48.836;9.174;2023-06-04T07:58:52;19.40;89.90
48744;DHT22;34538;48.836;9.174;2023-06-04T08:01:19;19.50;88.70
48744;DHT22;34538;48.836;9.174;2023-06-04T08:03:47;19.50;90.00
48744;DHT22;34538;48.836;9.174;2023-06-04T08:06:15;19.50;89.30
48744;DHT22;34538;48.836;9.174;2023-06-04T08:08:42;19.40;89.00
48744;DHT22;34538;48.836;9.174;2023-06-04T08:11:10;19.40;87.90
48744;DHT22;34538;48.836;9.174;2023-06-04T08:13:38;19.40;89.90
48744;DHT22;34538;48.836;9.174;2023-06-04T08:16:06;19.50;88.50
48744;DHT22;34538;48.836;9.174;2023-06-04T08:18:32;19.50;87.70
48744;DHT22;34538;48.836;9.174;2023-06-04T08:20:59;19.50;89.20
48744;DHT22;34538;48.836;9.174;2023-06-04T08:23:28;19.70;89.50
48744;DHT22;34538;48.836;9.174;2023-06-04T08:25:54;19.70;89.00
48744;DHT22;34538;48.836;9.174;2023-06-04T08:28:22;19.70;88.40
48744;DHT22;34538;48.836;9.174;2023-06-04T08:30:49;19.80;89.20
48744;DHT22;34538;48.836;9.174;2023-06-04T08:33:15;19.80;88.20
48744;DHT22;34538;48.836;9.174;2023-06-04T08:35:42;19.80;88.80
48744;DHT22;34538;48.836;9.174;2023-06-04T08:38:09;19.80;88.10
48744;DHT22;34538;48.836;9.174;2023-06-04T08:40:37;19.90;89.80
48744;DHT22;34538;48.836;9.174;2023-06-04T08:43:04;20.00;86.60
48744;DHT22;34538;48.836;9.174;2023-06-04T08:45:33;20.00;87.50
48744;DHT22;34538;48.836;9.174;2023-06-04T08:48:03;20.10;88.90
48744;DHT22;34538;48.836;9.174;2023-06-04T08:50:31;20.20;88.60
48744;DHT22;34538;48.836;9.174;2023-06-04T08:52:58;20.40;87.60
48744;DHT22;34538;48.836;9.174;2023-06-04T08:55:26;20.50;88.00
48744;DHT22;34538;48.836;9.174;2023-06-04T08:57:54;20.50;85.70
48744;DHT22;34538;48.836;9.174;2023-06-04T09:00:21;20.50;86.80
48744;DHT22;34538;48.836;9.174;2023-06-04T09:02:49;20.60;87.00
48744;DHT22;34538;48.836;9.174;2023-06-04T09:05:19;20.70;88.00
48744;DHT22;34538;48.836;9.174;2023-06-04T09:07:47;20.80;85.50
48744;DHT22;34538;48.836;9.174;2023-06-04T09:10:18;20.90;86.00
48744;DHT22;34538;48.836;9.174;2023-06-04T09:12:47;20.90;85.40
48744;DHT22;34538;48.836;9.174;2023-06-04T09:15:15;21.10;86.10
48744;DHT22;34538;48.836;9.174;2023-06-04T09:17:42;21.10;85.80
48744;DHT22;34538;48.836;9.174;2023-06-04T09:20:18;21.20;86.40
48744;DHT22;34538;48.836;9.174;2023-06-04T09:22:45;21.30;86.60
48744;DHT22;34538;48.836;9.174;2023-06-04T09:25:19;21.40;85.30
48744;DHT22;34538;48.836;9.174;2023-06-04T09:27:47;21.40;84.90
48744;DHT22;34538;48.836;9.174;2023-06-04T09:30:15;21.50;84.10
48744;DHT22;34538;48.836;9.174;2023-06-04T09:32:42;21.50;83.90
48744;DHT22;34538;48.836;9.174;2023-06-04T09:35:10;21.60;84.10
48744;DHT22;34538;48.836;9.174;2023-06-04T09:37:38;21.70;85.20
48744;DHT22;34538;48.836;9.174;2023-06-04T09:40:06;21.70;82.30
48744;DHT22;34538;48.836;9.174;2023-06-04T09:42:41;21.80;82.40
48744;DHT22;34538;48.836;9.174;2023-06-04T09:45:09;21.90;82.40
48744;DHT22;34538;48.836;9.174;2023-06-04T09:47:41;21.90;83.50
48744;DHT22;34538;48.836;9.174;2023-06-04T09:50:10;22.00;82.40
48744;DHT22;34538;48.836;9.174;2023-06-04T09:52:37;22.00;82.40
48744;DHT22;34538;48.836;9.174;2023-06-04T09:55:15;22.20;81.70
48744;DHT22;34538;48.836;9.174;2023-06-04T09:57:46;22.30;82.10
48744;DHT22;34538;48.836;9.174;2023-06-04T10:00:14;22.40;81.80
48744;DHT22;34538;48.836;9.174;2023-06-04T10:02:45;22.50;80.90
48744;DHT22;34538;48.836;9.174;2023-06-04T10:05:14;22.60;80.90
48744;DHT22;34538;48.836;9.174;2023-06-04T10:07:43;22.60;80.30
48744;DHT22;34538;48.836;9.174;2023-06-04T10:10:12;22.60;80.20
48744;DHT22;34538;48.836;9.174;2023-06-04T10:12:41;22.60;78.10
48744;DHT22;34538;48.836;9.174;2023-06-04T10:15:11;22.70;79.70
48744;DHT22;34538;48.836;9.174;2023-06-04T10:17:39;22.80;80.30
48744;DHT22;34538;48.836;9.174;2023-06-04T10:20:08;22.90;79.70
48744;DHT22;34538;48.836;9.174;2023-06-04T10:22:37;23.00;78.10
48744;DHT22;34538;48.836;9.174;2023-06-04T10:25:05;23.10;77.60
48744;DHT22;34538;48.836;9.174;2023-06-04T10:27:33;23.10;77.50
48744;DHT22;34538;48.836;9.174;2023-06-04T10:30:01;23.10;77.90
48744;DHT22;34538;48.836;9.174;2023-06-04T10:32:29;23.10;77.10
48744;DHT22;34538;48.836;9.174;2023-06-04T10:34:56;23.20;77.70
48744;DHT22;34538;48.836;9.174;2023-06-04T10:37:26;23.30;76.70
48744;DHT22;34538;48.836;9.174;2023-06-04T10:39:56;23.30;75.90
48744;DHT22;34538;48.836;9.174;2023-06-04T10:42:24;23.20;76.30
48744;DHT22;34538;48.836;9.174;2023-06-04T10:44:53;23.30;75.90
48744;DHT22;34538;48.836;9.174;2023-06-04T10:47:21;23.20;76.10
48744;DHT22;34538;48.836;9.174;2023-06-04T10:49:49;23.20;77.10
48744;DHT22;34538;48.836;9.174;2023-06-04T10:52:16;23.20;74.90
48744;DHT22;34538;48.836;9.174;2023-06-04T10:54:46;23.20;74.70
48744;DHT22;34538;48.836;9.174;2023-06-04T10:57:15;23.30;75.30
48744;DHT22;34538;48.836;9.174;2023-06-04T10:59:53;23.30;75.30
48744;DHT22;34538;48.836;9.174;2023-06-04T11:02:20;23.40;74.90
48744;DHT22;34538;48.836;9.174;2023-06-04T11:04:46;23.50;73.80
48744;DHT22;34538;48.836;9.174;2023-06-04T11:07:14;23.50;72.90
48744;DHT22;34538;48.836;9.174;2023-06-04T11:09:49;23.50;73.50
48744;DHT22;34538;48.836;9.174;2023-06-04T11:12:16;23.50;74.10
48744;DHT22;34538;48.836;9.174;2023-06-04T11:14:53;23.50;75.10
48744;DHT22;34538;48.836;9.174;2023-06-04T11:17:20;23.60;73.60
48744;DHT22;34538;48.836;9.174;2023-06-04T11:19:47;23.60;73.80
48744;DHT22;34538;48.836;9.174;2023-06-04T11:22:14;23.60;74.80
48744;DHT22;34538;48.836;9.174;2023-06-04T11:24:41;23.60;74.40
48744;DHT22;34538;48.836;9.174;2023-06-04T11:27:09;23.70;72.70
48744;DHT22;34538;48.836;9.174;2023-06-04T11:29:36;23.70;72.20
48744;DHT22;34538;48.836;9.174;2023-06-04T11:32:04;23.70;73.50
48744;DHT22;34538;48.836;9.174;2023-06-04T11:34:31;23.80;74.90
48744;DHT22;34538;48.836;9.174;2023-06-04T11:37:07;23.80;74.50
48744;DHT22;34538;48.836;9.174;2023-06-04T11:39:35;23.90;74.20
48744;DHT22;34538;48.836;9.174;2023-06-04T11:42:04;24.00;73.90
48744;DHT22;34538;48.836;9.174;2023-06-04T11:44:34;24.10;72.80
48744;DHT22;34538;48.836;9.174;2023-06-04T11:47:01;24.10;73.10
48744;DHT22;34538;48.836;9.174;2023-06-04T11:49:31;24.20;72.80
48744;DHT22;34538;48.836;9.174;2023-06-04T11:51:58;24.10;72.80
48744;DHT22;34538;48.836;9.174;2023-06-04T11:54:25;24.20;71.80
48744;DHT22;34538;48.836;9.174;2023-06-04T11:56:52;24.20;72.60
48744;DHT22;34538;48.836;9.174;2023-06-04T11:59:19;24.10;71.10
48744;DHT22;34538;48.836;9.174;2023-06-04T12:01:48;24.10;73.20
48744;DHT22;34538;48.836;9.174;2023-06-04T12:04:16;24.10;71.60
48744;DHT22;34538;48.836;9.174;2023-06-04T12:06:52;24.20;71.50
48744;DHT22;34538;48.836;9.174;2023-06-04T12:09:21;24.20;72.10
48744;DHT22;34538;48.836;9.174;2023-06-04T12:11:48;24.30;70.70
48744;DHT22;34538;48.836;9.174;2023-06-04T12:14:16;24.40;71.60
48744;DHT22;34538;48.836;9.174;2023-06-04T12:16:43;24.60;71.20
48744;DHT22;34538;48.836;9.174;2023-06-04T12:19:12;24.90;70.00
48744;DHT22;34538;48.836;9.174;2023-06-04T12:21:39;25.00;70.50
48744;DHT22;34538;48.836;9.174;2023-06-04T12:24:09;25.20;68.50
48744;DHT22;34538;48.836;9.174;2023-06-04T12:26:36;25.50;68.30
48744;DHT22;34538;48.836;9.174;2023-06-04T12:29:10;25.60;69.00
48744;DHT22;34538;48.836;9.174;2023-06-04T12:31:38;25.80;67.80
48744;DHT22;34538;48.836;9.174;2023-06-04T12:34:05;26.00;67.70
48744;DHT22;34538;48.836;9.174;2023-06-04T12:36:34;26.20;67.60
48744;DHT22;34538;48.836;9.174;2023-06-04T12:39:03;26.40;67.20
48744;DHT22;34538;48.836;9.174;2023-06-04T12:41:30;26.50;67.30
48744;DHT22;34538;48.836;9.174;2023-06-04T12:43:59;26.50;68.80
48744;DHT22;34538;48.836;9.174;2023-06-04T12:46:27;26.60;68.70
48744;DHT22;34538;48.836;9.174;2023-06-04T12:48:54;26.50;67.60
48744;DHT22;34538;48.836;9.174;2023-06-04T12:51:21;26.50;69.00
48744;DHT22;34538;48.836;9.174;2023-06-04T12:53:49;26.20;67.00
48744;DHT22;34538;48.836;9.174;2023-06-04T12:56:16;26.00;66.80
48744;DHT22;34538;48.836;9.174;2023-06-04T12:58:43;25.80;68.00
48744;DHT22;34538;48.836;9.174;2023-06-04T13:01:10;25.50;67.80
48744;DHT22;34538;48.836;9.174;2023-06-04T13:03:40;25.40;68.20
48744;DHT22;34538;48.836;9.174;2023-06-04T13:06:07;25.30;66.50
48744;DHT22;34538;48.836;9.174;2023-06-04T13:08:34;25.30;67.10
48744;DHT22;34538;48.836;9.174;2023-06-04T13:11:03;25.20;66.60
48744;DHT22;34538;48.836;9.174;2023-06-04T13:13:31;25.10;66.60
48744;DHT22;34538;48.836;9.174;2023-06-04T13:15:58;25.00;66.40
48744;DHT22;34538;48.836;9.174;2023-06-04T13:18:24;24.90;67.40
48744;DHT22;34538;48.836;9.174;2023-06-04T13:20:51;25.00;68.80
48744;DHT22;34538;48.836;9.174;2023-06-04T13:23:18;25.00;67.20
48744;DHT22;34538;48.836;9.174;2023-06-04T13:25:45;25.00;67.50
48744;DHT22;34538;48.836;9.174;2023-06-04T13:28:13;25.10;66.50
48744;DHT22;34538;48.836;9.174;2023-06-04T13:30:41;25.20;67.30
48744;DHT22;34538;48.836;9.174;2023-06-04T13:33:08;25.20;67.20
48744;DHT22;34538;48.836;9.174;2023-06-04T13:35:35;25.20;67.30
48744;DHT22;34538;48.836;9.174;2023-06-04T13:38:03;25.20;66.80
48744;DHT22;34538;48.836;9.174;2023-06-04T13:40:31;25.20;65.90
48744;DHT22;34538;48.836;9.174;2023-06-04T13:42:58;25.20;66.20
48744;DHT22;34538;48.836;9.174;2023-06-04T13:45:26;25.20;66.40
48744;DHT22;34538;48.836;9.174;2023-06-04T13:47:52;25.10;65.60
48744;DHT22;34538;48.836;9.174;2023-06-04T13:50:19;25.00;65.60
48744;DHT22;34538;48.836;9.174;2023-06-04T13:52:46;25.00;64.80
48744;DHT22;34538;48.836;9.174;2023-06-04T13:55:13;25.00;66.40
48744;DHT22;34538;48.836;9.174;2023-06-04T13:57:40;25.00;64.30
48744;DHT22;34538;48.836;9.174;2023-06-04T14:00:08;25.10;67.40
48744;DHT22;34538;48.836;9.174;2023-06-04T14:02:36;25.20;65.60
48744;DHT22;34538;48.836;9.174;2023-06-04T14:05:05;25.20;65.40
48744;DHT22;34538;48.836;9.174;2023-06-04T14:07:32;25.10;64.40
48744;DHT22;34538;48.836;9.174;2023-06-04T14:09:59;25.00;64.70
48744;DHT22;34538;48.836;9.174;2023-06-04T14:12:26;24.90;64.50
48744;DHT22;34538;48.836;9.174;2023-06-04T14:14:53;24.80;65.00
48744;DHT22;34538;48.836;9.174;2023-06-04T14:17:19;24.80;65.20
48744;DHT22;34538;48.836;9.174;2023-06-04T14:19:48;24.90;64.80
48744;DHT22;34538;48.836;9.174;2023-06-04T14:22:14;24.90;65.90
48744;DHT22;34538;48.836;9.174;2023-06-04T14:24:41;24.80;65.20
48744;DHT22;34538;48.836;9.174;2023-06-04T14:27:08;24.90;65.70
48744;DHT22;34538;48.836;9.174;2023-06-04T14:29:36;25.00;64.90
48744;DHT22;34538;48.836;9.174;2023-06-04T14:32:03;25.10;65.10
48744;DHT22;34538;48.836;9.174;2023-06-04T14:34:30;25.20;64.20
48744;DHT22;34538;48.836;9.174;2023-06-04T14:36:59;25.20;64.50
48744;DHT22;34538;48.836;9.174;2023-06-04T14:39:26;25.20;64.30
48744;DHT22;34538;48.836;9.174;2023-06-04T14:41:54;25.20;65.40
48744;DHT22;34538;48.836;9.174;2023-06-04T14:44:21;25.30;63.80
48744;DHT22;34538;48.836;9.174;2023-06-04T14:46:49;25.30;64.10
48744;DHT22;34538;48.836;9.174;2023-06-04T14:49:16;25.30;64.20
48744;DHT22;34538;48.836;9.174;2023-06-04T14:51:43;25.30;63.30
48744;DHT22;34538;48.836;9.174;2023-06-04T14:54:11;25.30;63.90
48744;DHT22;34538;48.836;9.174;2023-06-04T14:56:38;25.30;65.00
48744;DHT22;34538;48.836;9.174;2023-06-04T14:59:05;25.40;64.50
48744;DHT22;34538;48.836;9.174;2023-06-04T15:01:34;25.40;63.50
48744;DHT22;34538;48.836;9.174;2023-06-04T15:04:02;25.50;63.80
48744;DHT22;34538;48.836;9.174;2023-06-04T15:06:29;25.50;62.70
48744;DHT22;34538;48.836;9.174;2023-06-04T15:08:56;25.50;62.90
48744;DHT22;34538;48.836;9.174;2023-06-04T15:11:24;25.60;62.90
48744;DHT22;34538;48.836;9.174;2023-06-04T15:13:52;25.70;63.50
48744;DHT22;34538;48.836;9.174;2023-06-04T15:16:19;25.80;61.20
48744;DHT22;34538;48.836;9.174;2023-06-04T15:18:46;25.80;61.70
48744;DHT22;34538;48.836;9.174;2023-06-04T15:21:12;26.00;61.20
48744;DHT22;34538;48.836;9.174;2023-06-04T15:23:40;26.10;61.30
48744;DHT22;34538;48.836;9.174;2023-06-04T15:26:08;26.30;60.80
48744;DHT22;34538;48.836;9.174;2023-06-04T15:28:36;26.50;60.70
48744;DHT22;34538;48.836;9.174;2023-06-04T15:31:03;26.70;60.00
48744;DHT22;34538;48.836;9.174;2023-06-04T15:33:30;26.90;59.60
48744;DHT22;34538;48.836;9.174;2023-06-04T15:35:57;27.00;60.30